Map

Track Data

SID SEASON NUMBER BASIN SUBBASIN NAME ISO_TIME NATURE LAT LON WMO_WIND WMO_PRES WMO_AGENCY TRACK_TYPE DIST2LAND LANDFALL IFLAG USA_AGENCY USA_ATCF_ID USA_LAT USA_LON USA_RECORD USA_STATUS USA_WIND USA_PRES USA_SSHS USA_R34_NE USA_R34_SE USA_R34_SW USA_R34_NW USA_R50_NE USA_R50_SE USA_R50_SW USA_R50_NW USA_R64_NE USA_R64_SE USA_R64_SW USA_R64_NW USA_POCI USA_ROCI USA_RMW USA_EYE TOKYO_LAT TOKYO_LON TOKYO_GRADE TOKYO_WIND TOKYO_PRES TOKYO_R50_DIR TOKYO_R50_LONG TOKYO_R50_SHORT TOKYO_R30_DIR TOKYO_R30_LONG TOKYO_R30_SHORT TOKYO_LAND CMA_LAT CMA_LON CMA_CAT CMA_WIND CMA_PRES HKO_LAT HKO_LON HKO_CAT HKO_WIND HKO_PRES NEWDELHI_LAT NEWDELHI_LON NEWDELHI_GRADE NEWDELHI_WIND NEWDELHI_PRES NEWDELHI_CI NEWDELHI_DP NEWDELHI_POCI REUNION_LAT REUNION_LON REUNION_TYPE REUNION_WIND REUNION_PRES REUNION_TNUM REUNION_CI REUNION_RMW REUNION_R34_NE REUNION_R34_SE REUNION_R34_SW REUNION_R34_NW REUNION_R50_NE REUNION_R50_SE REUNION_R50_SW REUNION_R50_NW REUNION_R64_NE REUNION_R64_SE REUNION_R64_SW REUNION_R64_NW BOM_LAT BOM_LON BOM_TYPE BOM_WIND BOM_PRES BOM_TNUM BOM_CI BOM_RMW BOM_R34_NE BOM_R34_SE BOM_R34_SW BOM_R34_NW BOM_R50_NE BOM_R50_SE BOM_R50_SW BOM_R50_NW BOM_R64_NE BOM_R64_SE BOM_R64_SW BOM_R64_NW BOM_ROCI BOM_POCI BOM_EYE BOM_POS_METHOD BOM_PRES_METHOD NADI_LAT NADI_LON NADI_CAT NADI_WIND NADI_PRES WELLINGTON_LAT WELLINGTON_LON WELLINGTON_WIND WELLINGTON_PRES DS824_LAT DS824_LON DS824_STAGE DS824_WIND DS824_PRES TD9636_LAT TD9636_LON TD9636_STAGE TD9636_WIND TD9636_PRES TD9635_LAT TD9635_LON TD9635_WIND TD9635_PRES TD9635_ROCI NEUMANN_LAT NEUMANN_LON NEUMANN_CLASS NEUMANN_WIND NEUMANN_PRES MLC_LAT MLC_LON MLC_CLASS MLC_WIND MLC_PRES USA_GUST BOM_GUST BOM_GUST_PER REUNION_GUST REUNION_GUST_PER USA_SEAHGT USA_SEARAD_NE USA_SEARAD_SE USA_SEARAD_SW USA_SEARAD_NW STORM_SPEED STORM_DIR
1968219N12263 1968 59 EP MM GWEN 1968-08-06 00:00:00 TS 11.8000 -96.8000 25 hurdat_epa main 426 408 O________OO___ hurdat_epa EP071968 11.8000 -96.8000 TD 25 -1 11.8000 -96.8000 TC 25 11.8000 -96.8000 1 13 294
1968219N12263 1968 59 EP MM GWEN 1968-08-06 03:00:00 TS 12.0551 -97.3960 main 401 395 P________PP___ EP071968 12.0577 -97.3898 TD 25 -1 12.0577 -97.3898 TC 25 12.0447 -97.4208 1 13 293
1968219N12263 1968 59 EP MM GWEN 1968-08-06 06:00:00 TS 12.2962 -98.0088 25 hurdat_epa main 399 397 O________OP___ hurdat_epa EP071968 12.3000 -98.0000 TD 25 -1 12.3000 -98.0000 TC 25 12.2810 -98.0439 1 13 290
1968219N12263 1968 59 EP MM GWEN 1968-08-06 09:00:00 TS 12.5123 -98.6481 main 401 395 P________PP___ EP071968 12.5149 -98.6426 TD 25 -1 12.5149 -98.6426 TC 25 12.5018 -98.6699 1 13 288
1968219N12263 1968 59 EP MM GWEN 1968-08-06 12:00:00 TS 12.7000 -99.3000 25 hurdat_epa main 403 402 O________OO___ hurdat_epa EP071968 12.7000 -99.3000 TD 25 -1 12.7000 -99.3000 TC 25 12.7000 -99.3000 1 13 285
1968219N12263 1968 59 EP MM GWEN 1968-08-06 15:00:00 TS 12.8545 -99.9529 main 409 409 P________PP___ EP071968 12.8499 -99.9577 TD 25 -1 12.8499 -99.9577 TC 25 12.8728 -99.9338 1 13 284
1968219N12263 1968 59 EP MM GWEN 1968-08-06 18:00:00 TS 13.0069 -100.593 25 hurdat_epa main 425 419 O________OP___ hurdat_epa EP071968 13.0000 -100.600 TD 25 -1 13.0000 -100.600 TC 25 13.0346 -100.566 1 13 285
1968219N12263 1968 59 EP MM GWEN 1968-08-06 21:00:00 TS 13.1887 -101.204 main 423 422 P________PP___ EP071968 13.1848 -101.208 TD 25 -1 13.1848 -101.208 TC 25 13.2041 -101.190 1 12 288
1968219N12263 1968 59 EP MM GWEN 1968-08-07 00:00:00 TS 13.4000 -101.800 25 hurdat_epa main 432 430 O________OO___ hurdat_epa EP071968 13.4000 -101.800 TD 25 -1 13.4000 -101.800 TC 25 13.4000 -101.800 1 12 291
1968219N12263 1968 59 EP MM GWEN 1968-08-07 03:00:00 TS 13.6296 -102.396 main 436 426 P________PP___ EP071968 13.6349 -102.408 TD 25 -1 13.6349 -102.408 TC 25 13.6084 -102.350 1 12 293
1968219N12263 1968 59 EP MM GWEN 1968-08-07 06:00:00 TS 13.8901 -102.978 25 hurdat_epa main 431 426 O________OP___ hurdat_epa EP071968 13.9000 -103.000 TD 25 -1 13.9000 -103.000 TC 25 13.8506 -102.892 1 12 296
1968219N12263 1968 59 EP MM GWEN 1968-08-07 09:00:00 TS 14.1581 -103.503 main 431 419 P________PP___ EP071968 14.1620 -103.513 TD 25 -1 14.1620 -103.513 TC 25 14.1426 -103.463 1 13 299
1968219N12263 1968 59 EP MM GWEN 1968-08-07 12:00:00 TS 14.5000 -104.100 25 hurdat_epa main 422 401 O________OO___ hurdat_epa EP071968 14.5000 -104.100 TD 25 -1 14.5000 -104.100 TC 25 14.5000 -104.100 1 16 301
1968219N12263 1968 59 EP MM GWEN 1968-08-07 15:00:00 TS 14.9697 -104.897 main 398 391 P________PP___ EP071968 14.9702 -104.912 TD 25 -1 14.9702 -104.912 TC 25 14.9676 -104.836 1 19 302
1968219N12263 1968 59 EP MM GWEN 1968-08-07 18:00:00 TS 15.4984 -105.769 25 hurdat_epa main 397 394 O________OP___ hurdat_epa EP071968 15.5000 -105.800 TD 25 -1 15.5000 -105.800 TC 25 15.4921 -105.644 1 19 303
1968219N12263 1968 59 EP MM GWEN 1968-08-07 21:00:00 TS 16.0276 -106.569 main 405 393 P________PP___ EP071968 16.0293 -106.585 TD 35 0 16.0293 -106.585 TC 35 16.0205 -106.505 1 19 303
1968219N12263 1968 59 EP MM GWEN 1968-08-08 00:00:00 TS 16.5000 -107.400 45 hurdat_epa main 408 407 O________OO___ hurdat_epa EP071968 16.5000 -107.400 TS 45 0 16.5000 -107.400 TC 45 16.5000 -107.400 2 19 295
1968219N12263 1968 59 EP MM GWEN 1968-08-08 03:00:00 TS 16.8323 -108.335 main 453 453 P________PP___ EP071968 16.8299 -108.336 TS 45 0 16.8299 -108.336 TC 45 16.8416 -108.335 2 19 288
1968219N12263 1968 59 EP MM GWEN 1968-08-08 06:00:00 TS 17.1061 -109.298 45 hurdat_epa main 512 512 O________OP___ hurdat_epa EP071968 17.1000 -109.300 TS 45 0 17.1000 -109.300 TC 45 17.1307 -109.290 2 19 287
1968219N12263 1968 59 EP MM GWEN 1968-08-08 09:00:00 TS 17.3888 -110.235 main 574 574 P________PP___ EP071968 17.3849 -110.238 TS 45 0 17.3849 -110.238 TC 45 17.4043 -110.225 2 18 289
1968219N12263 1968 59 EP MM GWEN 1968-08-08 12:00:00 TS 17.7000 -111.100 45 hurdat_epa main 592 568 O________OO___ hurdat_epa EP071968 17.7000 -111.100 TS 45 0 17.7000 -111.100 TC 45 17.7000 -111.100 6 17 294
1968219N12263 1968 59 EP MM GWEN 1968-08-08 15:00:00 TS 18.0864 -111.845 main 568 556 P________PP___ EP071968 18.0844 -111.830 TS 35 0 18.0844 -111.830 TC 35 18.0944 -111.905 6 16 301
1968219N12263 1968 59 EP MM GWEN 1968-08-08 18:00:00 TS 18.5027 -112.528 25 hurdat_epa main 556 551 O________OP___ hurdat_epa EP071968 18.5000 -112.500 TD 25 -1 18.5000 -112.500 TC 25 18.5137 -112.641 6 16 302
1968219N12263 1968 59 EP MM GWEN 1968-08-08 21:00:00 TS 18.9233 -113.251 main 563 554 P________PP___ EP071968 18.9226 -113.237 TD 25 -1 18.9226 -113.237 TC 25 18.9262 -113.308 6 15 302
1968219N12263 1968 59 EP MM GWEN 1968-08-09 00:00:00 TS 19.3000 -113.900 25 hurdat_epa main 570 570 O________OO___ hurdat_epa EP071968 19.3000 -113.900 TD 25 -1 19.3000 -113.900 TC 25 19.3000 -113.900 6 13 301
1968219N12263 1968 59 EP MM GWEN 1968-08-09 03:00:00 TS 19.5800 -114.394 main 586 586 P________PP___ EP071968 19.5720 -114.388 TD 25 -1 19.5720 -114.388 TC 25 19.6117 -114.418 6 10 301
1968219N12263 1968 59 EP MM GWEN 1968-08-09 06:00:00 TS 19.8141 -114.816 25 hurdat_epa main 605 605 O________OP___ hurdat_epa EP071968 19.8000 -114.800 TD 25 -1 19.8000 -114.800 TC 25 19.8706 -114.878 6 9 300
1968219N12263 1968 59 EP MM GWEN 1968-08-09 09:00:00 TS 20.0532 -115.249 main 603 603 P________PP___ EP071968 20.0429 -115.237 TD 25 -1 20.0429 -115.237 TC 25 20.0943 -115.299 6 10 300
1968219N12263 1968 59 EP MM GWEN 1968-08-09 12:00:00 TS 20.3000 -115.700 25 hurdat_epa main 615 O________OO___ hurdat_epa EP071968 20.3000 -115.700 TD 25 -1 20.3000 -115.700 TC 25 20.3000 -115.700 6 10 300

About IBTrACS Database

This database is a web-friendly format of International Best Track Archive for Climate Stewardship (IBTrACS), a global best track data archive curated by NOAA dating back to 1842.

Updated: 2021-10-21